sensor_id;sensor_type;location;lat;lon;timestamp;P1;durP1;ratioP1;P2;durP2;ratioP2
65086;SDS011;52094;51.234;-2.310;2022-08-04T00:07:09;4.38;;;1.50;;
65086;SDS011;52094;51.234;-2.310;2022-08-04T00:11:25;5.82;;;1.90;;
65086;SDS011;52094;51.234;-2.310;2022-08-04T00:38:50;4.65;;;1.80;;
65086;SDS011;52094;51.234;-2.310;2022-08-04T01:22:22;5.15;;;2.00;;
65086;SDS011;52094;51.234;-2.310;2022-08-04T01:26:49;7.15;;;2.20;;
65086;SDS011;52094;51.234;-2.310;2022-08-04T01:46:21;6.10;;;2.57;;
65086;SDS011;52094;51.234;-2.310;2022-08-04T01:55:36;5.55;;;1.90;;
65086;SDS011;52094;51.234;-2.310;2022-08-04T02:04:49;4.75;;;1.90;;
65086;SDS011;52094;51.234;-2.310;2022-08-04T02:09:07;5.32;;;2.13;;
65086;SDS011;52094;51.234;-2.310;2022-08-04T02:47:16;6.55;;;2.10;;
65086;SDS011;52094;51.234;-2.310;2022-08-04T03:01:03;7.30;;;2.00;;
65086;SDS011;52094;51.234;-2.310;2022-08-04T03:53:32;5.80;;;2.03;;
65086;SDS011;52094;51.234;-2.310;2022-08-04T04:10:03;4.50;;;2.17;;
65086;SDS011;52094;51.234;-2.310;2022-08-04T04:22:21;7.22;;;2.50;;
65086;SDS011;52094;51.234;-2.310;2022-08-04T04:35:47;6.18;;;2.17;;
65086;SDS011;52094;51.234;-2.310;2022-08-04T04:54:04;5.95;;;2.20;;
65086;SDS011;52094;51.234;-2.310;2022-08-04T04:57:43;5.13;;;2.00;;
65086;SDS011;52094;51.234;-2.310;2022-08-04T05:14:17;7.13;;;2.60;;
65086;SDS011;52094;51.234;-2.310;2022-08-04T05:18:25;5.63;;;2.55;;
65086;SDS011;52094;51.234;-2.310;2022-08-04T05:27:25;5.45;;;2.05;;
65086;SDS011;52094;51.234;-2.310;2022-08-04T05:31:27;7.28;;;2.38;;
65086;SDS011;52094;51.234;-2.310;2022-08-04T05:35:32;7.13;;;2.58;;
65086;SDS011;52094;51.234;-2.310;2022-08-04T05:39:49;6.93;;;2.80;;
65086;SDS011;52094;51.234;-2.310;2022-08-04T05:43:42;8.73;;;2.63;;
65086;SDS011;52094;51.234;-2.310;2022-08-04T05:48:18;6.65;;;2.33;;
65086;SDS011;52094;51.234;-2.310;2022-08-04T05:52:20;5.97;;;2.30;;
65086;SDS011;52094;51.234;-2.310;2022-08-04T05:56:20;5.85;;;1.90;;
65086;SDS011;52094;51.234;-2.310;2022-08-04T06:00:23;4.20;;;2.22;;
65086;SDS011;52094;51.234;-2.310;2022-08-04T06:09:17;7.07;;;2.15;;
65086;SDS011;52094;51.234;-2.310;2022-08-04T06:13:25;5.57;;;2.00;;
65086;SDS011;52094;51.234;-2.310;2022-08-04T06:17:50;3.80;;;1.60;;
65086;SDS011;52094;51.234;-2.310;2022-08-04T06:22:17;5.95;;;2.40;;
65086;SDS011;52094;51.234;-2.310;2022-08-04T06:26:34;5.30;;;1.88;;
65086;SDS011;52094;51.234;-2.310;2022-08-04T06:30:44;7.18;;;2.17;;
65086;SDS011;52094;51.234;-2.310;2022-08-04T06:34:36;4.63;;;1.70;;
65086;SDS011;52094;51.234;-2.310;2022-08-04T06:38:38;5.68;;;2.20;;
65086;SDS011;52094;51.234;-2.310;2022-08-04T06:46:52;5.80;;;2.17;;
65086;SDS011;52094;51.234;-2.310;2022-08-04T06:51:01;4.90;;;1.90;;
65086;SDS011;52094;51.234;-2.310;2022-08-04T06:55:31;5.70;;;2.10;;
65086;SDS011;52094;51.234;-2.310;2022-08-04T06:59:37;4.45;;;2.03;;
65086;SDS011;52094;51.234;-2.310;2022-08-04T07:04:31;5.32;;;2.00;;
65086;SDS011;52094;51.234;-2.310;2022-08-04T07:13:33;5.25;;;2.10;;
65086;SDS011;52094;51.234;-2.310;2022-08-04T07:17:53;5.50;;;2.00;;
65086;SDS011;52094;51.234;-2.310;2022-08-04T07:22:07;6.28;;;2.15;;
65086;SDS011;52094;51.234;-2.310;2022-08-04T07:45:58;6.63;;;2.10;;
65086;SDS011;52094;51.234;-2.310;2022-08-04T07:50:00;5.60;;;1.65;;
65086;SDS011;52094;51.234;-2.310;2022-08-04T08:25:39;4.57;;;1.70;;
65086;SDS011;52094;51.234;-2.310;2022-08-04T08:39:38;5.00;;;1.70;;
65086;SDS011;52094;51.234;-2.310;2022-08-04T11:58:33;2.92;;;0.80;;
65086;SDS011;52094;51.234;-2.310;2022-08-04T12:14:19;2.20;;;1.08;;
65086;SDS011;52094;51.234;-2.310;2022-08-04T12:22:40;1.98;;;0.80;;
65086;SDS011;52094;51.234;-2.310;2022-08-04T12:31:55;1.90;;;0.80;;
65086;SDS011;52094;51.234;-2.310;2022-08-04T12:41:02;1.98;;;0.60;;
65086;SDS011;52094;51.234;-2.310;2022-08-04T12:50:12;2.70;;;0.88;;
65086;SDS011;52094;51.234;-2.310;2022-08-04T12:54:31;1.17;;;0.60;;
65086;SDS011;52094;51.234;-2.310;2022-08-04T12:58:59;2.53;;;0.77;;
65086;SDS011;52094;51.234;-2.310;2022-08-04T13:03:20;2.25;;;0.88;;
65086;SDS011;52094;51.234;-2.310;2022-08-04T13:12:11;1.33;;;0.60;;
65086;SDS011;52094;51.234;-2.310;2022-08-04T13:20:38;2.17;;;0.85;;
65086;SDS011;52094;51.234;-2.310;2022-08-04T13:24:33;19.40;;;3.70;;
65086;SDS011;52094;51.234;-2.310;2022-08-04T13:33:31;1.70;;;0.70;;
65086;SDS011;52094;51.234;-2.310;2022-08-04T13:37:31;1.40;;;0.70;;
65086;SDS011;52094;51.234;-2.310;2022-08-04T13:50:49;2.13;;;0.77;;
65086;SDS011;52094;51.234;-2.310;2022-08-04T14:08:19;3.00;;;1.02;;
65086;SDS011;52094;51.234;-2.310;2022-08-04T14:12:20;2.28;;;0.80;;
65086;SDS011;52094;51.234;-2.310;2022-08-04T14:21:08;2.72;;;0.88;;
65086;SDS011;52094;51.234;-2.310;2022-08-04T14:25:33;1.50;;;0.60;;
65086;SDS011;52094;51.234;-2.310;2022-08-04T14:29:36;3.65;;;1.10;;
65086;SDS011;52094;51.234;-2.310;2022-08-04T14:33:24;1.80;;;0.63;;
65086;SDS011;52094;51.234;-2.310;2022-08-04T14:37:54;3.30;;;0.80;;
65086;SDS011;52094;51.234;-2.310;2022-08-04T14:41:51;3.00;;;0.73;;
65086;SDS011;52094;51.234;-2.310;2022-08-04T14:46:04;3.67;;;1.25;;
65086;SDS011;52094;51.234;-2.310;2022-08-04T14:50:40;1.47;;;0.80;;
65086;SDS011;52094;51.234;-2.310;2022-08-04T15:00:04;3.33;;;0.83;;
65086;SDS011;52094;51.234;-2.310;2022-08-04T15:04:01;1.48;;;0.80;;
65086;SDS011;52094;51.234;-2.310;2022-08-04T15:08:08;2.97;;;0.82;;
65086;SDS011;52094;51.234;-2.310;2022-08-04T15:12:07;3.25;;;0.82;;
65086;SDS011;52094;51.234;-2.310;2022-08-04T15:39:02;3.40;;;0.70;;
65086;SDS011;52094;51.234;-2.310;2022-08-04T15:43:30;3.22;;;0.85;;
65086;SDS011;52094;51.234;-2.310;2022-08-04T15:48:35;1.88;;;0.80;;
65086;SDS011;52094;51.234;-2.310;2022-08-04T15:53:08;1.70;;;0.73;;
65086;SDS011;52094;51.234;-2.310;2022-08-04T15:58:02;2.33;;;0.80;;
65086;SDS011;52094;51.234;-2.310;2022-08-04T16:12:08;1.85;;;0.80;;
65086;SDS011;52094;51.234;-2.310;2022-08-04T16:16:25;4.05;;;0.98;;
65086;SDS011;52094;51.234;-2.310;2022-08-04T16:20:47;2.63;;;0.70;;
65086;SDS011;52094;51.234;-2.310;2022-08-04T16:24:57;3.40;;;0.88;;
65086;SDS011;52094;51.234;-2.310;2022-08-04T16:33:49;1.70;;;0.60;;
65086;SDS011;52094;51.234;-2.310;2022-08-04T16:38:16;2.20;;;0.68;;
65086;SDS011;52094;51.234;-2.310;2022-08-04T16:46:42;1.25;;;0.60;;
65086;SDS011;52094;51.234;-2.310;2022-08-04T16:51:08;1.23;;;0.60;;
65086;SDS011;52094;51.234;-2.310;2022-08-04T17:00:01;1.88;;;0.63;;
65086;SDS011;52094;51.234;-2.310;2022-08-04T17:03:50;2.35;;;0.60;;
65086;SDS011;52094;51.234;-2.310;2022-08-04T17:08:07;1.92;;;0.77;;
65086;SDS011;52094;51.234;-2.310;2022-08-04T17:12:12;1.77;;;0.70;;
65086;SDS011;52094;51.234;-2.310;2022-08-04T17:16:09;1.15;;;0.60;;
65086;SDS011;52094;51.234;-2.310;2022-08-04T17:20:26;1.50;;;0.60;;
65086;SDS011;52094;51.234;-2.310;2022-08-04T17:24:47;1.42;;;0.50;;
65086;SDS011;52094;51.234;-2.310;2022-08-04T17:28:59;2.80;;;0.70;;
65086;SDS011;52094;51.234;-2.310;2022-08-04T17:32:58;2.13;;;0.82;;
65086;SDS011;52094;51.234;-2.310;2022-08-04T17:36:54;1.55;;;0.60;;
65086;SDS011;52094;51.234;-2.310;2022-08-04T17:40:59;0.93;;;0.65;;
65086;SDS011;52094;51.234;-2.310;2022-08-04T17:45:17;1.45;;;0.77;;
65086;SDS011;52094;51.234;-2.310;2022-08-04T17:49:47;2.20;;;0.60;;
65086;SDS011;52094;51.234;-2.310;2022-08-04T17:53:33;1.08;;;0.40;;
65086;SDS011;52094;51.234;-2.310;2022-08-04T17:57:39;1.05;;;0.40;;
65086;SDS011;52094;51.234;-2.310;2022-08-04T18:01:53;1.55;;;0.60;;
65086;SDS011;52094;51.234;-2.310;2022-08-04T18:15:37;1.55;;;0.65;;
65086;SDS011;52094;51.234;-2.310;2022-08-04T18:19:35;1.45;;;0.68;;
65086;SDS011;52094;51.234;-2.310;2022-08-04T18:32:39;1.58;;;0.70;;
65086;SDS011;52094;51.234;-2.310;2022-08-04T18:36:37;1.20;;;0.68;;
65086;SDS011;52094;51.234;-2.310;2022-08-04T18:40:39;2.38;;;0.60;;
65086;SDS011;52094;51.234;-2.310;2022-08-04T18:44:41;1.88;;;0.60;;
65086;SDS011;52094;51.234;-2.310;2022-08-04T18:48:48;1.75;;;0.60;;
65086;SDS011;52094;51.234;-2.310;2022-08-04T18:53:02;1.30;;;0.50;;
65086;SDS011;52094;51.234;-2.310;2022-08-04T18:57:20;1.33;;;0.50;;
65086;SDS011;52094;51.234;-2.310;2022-08-04T19:01:26;1.05;;;0.70;;
65086;SDS011;52094;51.234;-2.310;2022-08-04T19:05:44;2.53;;;0.65;;
65086;SDS011;52094;51.234;-2.310;2022-08-04T19:09:41;1.45;;;0.60;;
65086;SDS011;52094;51.234;-2.310;2022-08-04T19:14:23;2.58;;;0.70;;
65086;SDS011;52094;51.234;-2.310;2022-08-04T19:18:10;1.55;;;0.60;;
65086;SDS011;52094;51.234;-2.310;2022-08-04T19:22:04;1.55;;;0.70;;
65086;SDS011;52094;51.234;-2.310;2022-08-04T19:26:14;2.58;;;0.60;;
65086;SDS011;52094;51.234;-2.310;2022-08-04T19:30:08;1.65;;;0.60;;
65086;SDS011;52094;51.234;-2.310;2022-08-04T19:38:36;1.90;;;0.80;;
65086;SDS011;52094;51.234;-2.310;2022-08-04T19:42:28;2.15;;;0.80;;
65086;SDS011;52094;51.234;-2.310;2022-08-04T19:46:16;1.52;;;0.77;;
65086;SDS011;52094;51.234;-2.310;2022-08-04T19:50:15;2.25;;;0.82;;
65086;SDS011;52094;51.234;-2.310;2022-08-04T19:54:26;1.70;;;0.80;;
65086;SDS011;52094;51.234;-2.310;2022-08-04T19:58:21;2.60;;;0.88;;
65086;SDS011;52094;51.234;-2.310;2022-08-04T20:02:07;1.60;;;0.60;;
65086;SDS011;52094;51.234;-2.310;2022-08-04T20:05:59;2.30;;;0.90;;
65086;SDS011;52094;51.234;-2.310;2022-08-04T20:10:21;1.38;;;0.63;;
65086;SDS011;52094;51.234;-2.310;2022-08-04T20:14:08;1.23;;;0.50;;
65086;SDS011;52094;51.234;-2.310;2022-08-04T20:18:15;2.35;;;0.70;;
65086;SDS011;52094;51.234;-2.310;2022-08-04T20:22:24;1.08;;;0.60;;
65086;SDS011;52094;51.234;-2.310;2022-08-04T20:26:33;1.00;;;0.60;;
65086;SDS011;52094;51.234;-2.310;2022-08-04T20:31:27;1.27;;;0.50;;
65086;SDS011;52094;51.234;-2.310;2022-08-04T20:35:26;1.98;;;0.80;;
65086;SDS011;52094;51.234;-2.310;2022-08-04T20:39:47;2.20;;;0.80;;
65086;SDS011;52094;51.234;-2.310;2022-08-04T20:48:32;1.30;;;0.68;;
65086;SDS011;52094;51.234;-2.310;2022-08-04T20:52:28;3.17;;;0.88;;
65086;SDS011;52094;51.234;-2.310;2022-08-04T20:56:35;1.67;;;0.80;;
65086;SDS011;52094;51.234;-2.310;2022-08-04T21:11:33;2.75;;;0.77;;
65086;SDS011;52094;51.234;-2.310;2022-08-04T21:16:00;1.92;;;0.77;;
65086;SDS011;52094;51.234;-2.310;2022-08-04T21:20:18;1.92;;;0.77;;
65086;SDS011;52094;51.234;-2.310;2022-08-04T21:24:14;1.88;;;0.80;;
65086;SDS011;52094;51.234;-2.310;2022-08-04T21:28:06;0.98;;;0.50;;
65086;SDS011;52094;51.234;-2.310;2022-08-04T21:32:06;2.45;;;1.02;;
65086;SDS011;52094;51.234;-2.310;2022-08-04T21:35:54;2.55;;;0.90;;
65086;SDS011;52094;51.234;-2.310;2022-08-04T21:39:56;1.70;;;0.88;;
65086;SDS011;52094;51.234;-2.310;2022-08-04T21:44:13;2.17;;;1.10;;
65086;SDS011;52094;51.234;-2.310;2022-08-04T21:48:06;3.25;;;1.08;;
65086;SDS011;52094;51.234;-2.310;2022-08-04T21:52:05;2.40;;;0.95;;
65086;SDS011;52094;51.234;-2.310;2022-08-04T21:56:03;2.28;;;0.80;;
65086;SDS011;52094;51.234;-2.310;2022-08-04T22:00:03;3.05;;;1.27;;
65086;SDS011;52094;51.234;-2.310;2022-08-04T22:04:07;3.38;;;0.82;;
65086;SDS011;52094;51.234;-2.310;2022-08-04T22:08:07;4.25;;;1.10;;
65086;SDS011;52094;51.234;-2.310;2022-08-04T22:12:10;1.58;;;0.70;;
65086;SDS011;52094;51.234;-2.310;2022-08-04T22:20:09;1.67;;;0.65;;
65086;SDS011;52094;51.234;-2.310;2022-08-04T22:24:12;2.65;;;0.63;;
65086;SDS011;52094;51.234;-2.310;2022-08-04T22:28:20;1.92;;;0.82;;
65086;SDS011;52094;51.234;-2.310;2022-08-04T22:32:20;2.63;;;1.13;;
65086;SDS011;52094;51.234;-2.310;2022-08-04T22:36:19;4.93;;;1.08;;
65086;SDS011;52094;51.234;-2.310;2022-08-04T22:40:20;2.38;;;0.70;;
65086;SDS011;52094;51.234;-2.310;2022-08-04T22:44:10;3.47;;;0.73;;
65086;SDS011;52094;51.234;-2.310;2022-08-04T22:48:12;2.95;;;1.00;;
65086;SDS011;52094;51.234;-2.310;2022-08-04T22:52:09;2.97;;;0.90;;
65086;SDS011;52094;51.234;-2.310;2022-08-04T22:56:10;2.13;;;1.05;;
65086;SDS011;52094;51.234;-2.310;2022-08-04T23:00:26;2.55;;;0.70;;
65086;SDS011;52094;51.234;-2.310;2022-08-04T23:04:33;2.03;;;0.80;;
65086;SDS011;52094;51.234;-2.310;2022-08-04T23:08:34;1.55;;;0.60;;
65086;SDS011;52094;51.234;-2.310;2022-08-04T23:16:35;1.17;;;0.55;;
65086;SDS011;52094;51.234;-2.310;2022-08-04T23:20:29;2.13;;;0.70;;
65086;SDS011;52094;51.234;-2.310;2022-08-04T23:25:01;4.50;;;0.80;;
65086;SDS011;52094;51.234;-2.310;2022-08-04T23:29:30;2.92;;;0.60;;
65086;SDS011;52094;51.234;-2.310;2022-08-04T23:33:53;4.32;;;1.20;;
65086;SDS011;52094;51.234;-2.310;2022-08-04T23:37:50;2.33;;;0.73;;
65086;SDS011;52094;51.234;-2.310;2022-08-04T23:41:59;1.20;;;0.60;;
65086;SDS011;52094;51.234;-2.310;2022-08-04T23:45:58;1.98;;;0.60;;
65086;SDS011;52094;51.234;-2.310;2022-08-04T23:50:14;1.60;;;0.43;;
65086;SDS011;52094;51.234;-2.310;2022-08-04T23:54:00;2.47;;;0.95;;
65086;SDS011;52094;51.234;-2.310;2022-08-04T23:57:53;2.03;;;0.70;;
